Latest Weather Observations for Pallamana

IDS60901

Issued at 11:21 pm CDT Sunday 24 October 2021 (issued every 10 minutes, with the page automatically refreshed every 10 minutes)

About weather observations | Map of Adelaide area stations | Latest observations for Adelaide area | Other Formats
Station Details ID: 024584 Name: PALLAMANA AERODROME Lat: -35.06 Lon: 139.23 Height: 45.0 m
Data from the previous 72 hours. | See also: Recent months at Pallamana
Date/Time
CDT
Temp
°C
App
Temp
°C
Dew
Point
°C
Rel
Hum
%
Delta-T
°C
Wind Press
QNH
hPa
Press
MSL
hPa
Rain since
9am
mm
Dir  Spd
km/h
Gust
km/h
Spd
kts
Gust
kts
24/11:00pm 7.9 5.3 6.0 88 0.9 SSW 9 15 5 8 1025.3 1025.3 0.0
24/10:30pm 7.6 4.2 5.9 89 0.8 SW 13 15 7 8 1025.3 1025.3 0.0
24/10:00pm 8.1 4.7 6.1 87 0.9 SW 13 15 7 8 1025.4 1025.4 0.0
24/09:30pm 8.9 5.4 5.5 79 1.5 SW 13 17 7 9 1025.4 1025.4 0.0
24/09:00pm 9.7 5.5 5.5 75 1.9 SW 17 19 9 10 1025.3 1025.3 0.0
24/08:30pm 10.1 5.8 5.1 71 2.3 SW 17 19 9 10 1025.1 1025.1 0.0
24/08:00pm 11.5 7.2 5.4 66 2.8 SSW 17 22 9 12 1025.0 1025.0 0.0
24/07:30pm 12.9 7.7 5.3 60 3.5 SSW 22 30 12 16 1024.9 1024.9 0.0
24/07:00pm 13.9 8.7 5.3 56 4.0 SSW 22 28 12 15 1024.4 1024.4 0.0
24/06:30pm 14.9 8.9 5.4 53 4.5 SSW 26 37 14 20 1024.1 1024.1 0.0
24/06:00pm 15.9 9.7 6.1 52 4.7 S 28 39 15 21 1024.0 1024.0 0.0
24/05:30pm 16.7 10.6 6.5 51 5.0 S 28 39 15 21 1023.7 1023.7 0.0
24/05:00pm 17.3 11.1 6.2 48 5.4 S 28 39 15 21 1023.6 1023.6 0.0
24/04:30pm 18.8 13.5 6.6 45 6.1 SSW 24 35 13 19 1023.5 1023.5 0.0
24/04:00pm 18.6 12.7 5.8 43 6.3 SSW 26 37 14 20 1023.7 1023.7 0.0
24/03:30pm 18.2 12.7 5.8 44 6.0 S 24 30 13 16 1023.9 1023.9 0.0
24/03:00pm 19.9 14.8 5.9 40 6.9 S 22 32 12 17 1024.2 1024.2 0.0
24/02:30pm 19.9 15.8 6.3 41 6.8 S 17 32 9 17 1024.6 1024.6 0.0
24/02:00pm 18.0 13.5 5.9 45 5.9 S 19 26 10 14 1024.9 1024.9 0.0
24/01:30pm 19.6 15.5 6.4 42 6.6 SSW 17 30 9 16 1025.1 1025.1 0.0
24/01:00pm 18.8 14.1 5.3 41 6.6 SSE 19 26 10 14 1025.5 1025.5 0.0
24/12:30pm 16.8 11.3 7.7 55 4.6 S 26 35 14 19 1025.9 1025.9 0.0
24/12:00pm 17.2 13.9 6.4 49 5.3 SSE 13 24 7 13 1026.0 1026.0 0.0
24/11:30am 16.9 12.6 7.0 52 4.9 SSE 19 24 10 13 1026.4 1026.4 0.0
24/11:00am 15.4 12.0 9.1 66 3.2 SSW 17 22 9 12 1026.7 1026.7 0.0
24/10:30am 15.8 12.4 9.2 65 3.4 S 17 30 9 16 1026.7 1026.7 0.0
24/10:00am 14.1 12.3 10.7 80 1.8 SE 11 13 6 7 1026.9 1026.9 0.0
24/09:30am 15.1 12.1 9.2 68 3.0 SE 15 24 8 13 1026.8 1026.8 0.0
24/09:00am 14.6 12.1 9.8 73 2.5 SE 13 17 7 9 1026.8 1026.8 0.0
24/08:30am 13.0 10.2 8.5 74 2.2 SE 13 19 7 10 1026.7 1026.7 0.0
24/08:00am 11.8 10.3 8.3 79 1.7 SSE 6 9 3 5 1026.6 1026.6 0.0
24/07:30am 10.1 8.8 9.2 94 0.4 SSW 6 7 3 4 1026.3 1026.3 0.0
24/07:00am 8.0 5.8 7.9 99 0.0 SSW 9 11 5 6 1026.1 1026.1 0.0
24/06:30am 6.4 3.8 6.0 97 0.2 S 9 11 5 6 1025.7 1025.7 0.0
24/06:00am 6.8 4.3 6.5 98 0.1 S 9 11 5 6 1025.4 1025.4 0.0
24/05:30am 6.8 4.3 6.5 98 0.1 SSW 9 11 5 6 1025.1 1025.1 0.0
24/05:00am 7.0 4.5 6.6 97 0.2 S 9 11 5 6 1025.0 1025.0 0.0
24/04:30am 8.3 5.9 7.2 93 0.5 S 9 11 5 6 1025.1 1025.1 0.0
24/04:00am 9.4 7.2 7.8 90 0.8 SSE 9 13 5 7 1025.0 1025.0 0.0
24/03:30am 10.6 7.8 8.7 88 0.9 SSE 13 17 7 9 1025.0 1025.0 0.0
24/03:00am 10.5 8.4 9.6 94 0.4 SSE 11 13 6 7 1024.9 1024.9 0.0
24/02:30am 9.8 8.2 8.7 93 0.5 ESE 7 9 4 5 1025.0 1025.0 0.0
24/02:00am 9.6 8.2 8.8 95 0.4 S 6 7 3 4 1025.1 1025.1 0.0
24/01:30am 9.7 8.1 8.0 89 0.8 S 6 11 3 6 1025.2 1025.2 0.0
24/01:00am 10.6 8.4 9.2 91 0.7 S 11 17 6 9 1025.3 1025.3 0.0
24/12:30am 11.0 8.8 9.3 89 0.8 S 11 13 6 7 1025.3 1025.3 0.0
24/12:00am 12.4 9.8 9.4 82 1.5 S 13 19 7 10 1025.2 1025.2 0.0
 
Date/Time
CDT
Temp
°C
App
Temp
°C
Dew
Point
°C
Rel
Hum
%
Delta-T
°C
Wind Press
QNH
hPa
Press
MSL
hPa
Rain since
9am
mm
Dir  Spd
km/h
Gust
km/h
Spd
kts
Gust
kts
23/11:30pm 12.6 9.5 8.7 77 1.9 S 15 22 8 12 1025.1 1025.1 0.0
23/11:00pm 13.2 9.4 9.8 80 1.7 S 20 35 11 19 1024.9 1024.9 0.0
23/10:30pm 12.9 9.2 9.4 79 1.8 SSW 19 24 10 13 1025.1 1025.1 0.0
23/10:00pm 12.5 9.4 9.0 79 1.8 SW 15 20 8 11 1025.1 1025.1 0.0
23/09:30pm 11.6 8.8 8.6 82 1.5 SW 13 15 7 8 1025.1 1025.1 0.0
23/09:00pm 11.7 8.1 8.2 79 1.7 SSW 17 26 9 14 1024.7 1024.7 0.0
23/08:30pm 12.3 8.8 8.6 78 1.8 SSW 17 24 9 13 1024.2 1024.2 0.0
23/08:00pm 13.2 8.7 8.5 73 2.4 SSW 22 30 12 16 1023.8 1023.8 0.0
23/07:30pm 13.5 9.4 8.6 72 2.4 SSW 20 28 11 15 1023.3 1023.3 0.0
23/07:00pm 14.1 8.3 8.1 67 3.0 SSW 28 39 15 21 1022.9 1022.9 0.0
23/06:30pm 14.8 8.2 7.6 62 3.6 SSW 32 43 17 23 1022.5 1022.5 0.0
23/06:00pm 15.5 8.7 7.0 57 4.2 SW 32 43 17 23 1022.4 1022.4 0.0
23/05:30pm 15.7 9.3 7.0 56 4.3 SSW 30 41 16 22 1022.0 1022.0 0.0
23/05:25pm 16.1 9.3 6.8 54 4.6 SSW 32 50 17 27 1022.0 1022.0 0.0
23/05:00pm 16.9 9.2 3.2 40 6.3 SSW 33 44 18 24 1021.7 1021.7 0.0
23/04:30pm 18.4 10.3 3.5 37 7.0 SW 35 44 19 24 1021.5 1021.5 0.0
23/04:00pm 19.0 11.7 4.4 38 7.0 SSW 32 46 17 25 1021.4 1021.4 0.0
23/03:30pm 18.8 11.3 4.6 39 6.8 SSW 33 44 18 24 1021.5 1021.5 0.0
23/03:00pm 18.2 10.9 4.7 41 6.4 SSW 32 52 17 28 1021.4 1021.4 0.0
23/02:33pm 18.8 11.5 4.6 39 6.8 SSW 32 54 17 29 1021.3 1021.3 0.0
23/02:30pm 18.2 11.1 5.4 43 6.2 SSW 32 48 17 26 1021.4 1021.4 0.0
23/02:00pm 17.4 9.8 4.0 41 6.3 SW 33 44 18 24 1021.5 1021.5 0.0
23/01:30pm 18.9 11.7 5.0 40 6.7 SW 32 46 17 25 1021.5 1021.5 0.0
23/01:00pm 18.1 11.2 6.3 46 5.8 SW 32 44 17 24 1021.6 1021.6 0.0
23/12:30pm 18.2 11.1 6.4 46 5.8 SW 33 52 18 28 1021.6 1021.6 0.0
23/12:00pm 18.7 10.9 2.9 35 7.3 SW 33 44 18 24 1021.6 1021.6 0.0
23/11:31am 18.8 11.6 4.9 40 6.7 SW 32 50 17 27 1021.6 1021.6 0.0
23/11:30am 18.5 11.0 4.7 40 6.6 SW 33 50 18 27 1021.6 1021.6 0.0
23/11:00am 17.2 10.1 6.4 49 5.3 SW 33 46 18 25 1021.5 1021.5 0.0
23/10:30am 18.1 11.0 3.6 38 6.8 SW 30 39 16 21 1021.4 1021.4 0.0
23/10:00am 16.2 9.9 5.8 50 5.0 SW 28 39 15 21 1021.4 1021.4 0.0
23/09:39am 16.4 10.6 9.3 63 3.7 SW 30 50 16 27 1021.2 1021.2 0.0
23/09:30am 16.0 10.4 10.3 69 3.0 SW 30 39 16 21 1021.2 1021.2 0.0
23/09:00am 15.6 8.8 9.1 65 3.3 SW 35 46 19 25 1020.9 1020.9 0.0
23/08:30am 15.1 10.0 10.5 74 2.4 SW 28 37 15 20 1020.6 1020.6 0.0
23/08:00am 13.8 9.8 10.6 81 1.7 WSW 22 30 12 16 1020.1 1020.0 0.0
23/07:30am 12.3 9.2 10.2 87 1.1 W 17 20 9 11 1019.9 1019.8 0.0
23/07:00am 10.8 7.9 9.7 93 0.6 W 15 20 8 11 1019.6 1019.5 0.0
23/06:30am 9.6 6.1 8.8 95 0.4 W 17 20 9 11 1019.3 1019.2 0.0
23/06:00am 9.8 6.7 8.9 94 0.4 W 15 19 8 10 1018.8 1018.7 0.0
23/05:30am 9.7 7.4 9.1 96 0.3 W 11 15 6 8 1018.6 1018.5 0.0
23/05:00am 9.7 6.6 8.8 94 0.4 WSW 15 17 8 9 1018.5 1018.4 0.0
23/04:30am 10.3 7.0 9.5 95 0.4 WSW 17 20 9 11 1018.4 1018.3 0.0
23/04:00am 10.4 7.2 9.9 97 0.3 WSW 17 20 9 11 1018.2 1018.1 0.0
23/03:30am 10.9 8.2 10.4 97 0.3 WSW 15 19 8 10 1018.1 1018.0 0.0
23/03:00am 11.4 8.2 11.1 98 0.2 WSW 19 24 10 13 1018.0 1017.9 0.0
23/02:30am 11.8 9.1 11.6 99 0.1 WSW 17 20 9 11 1017.9 1017.8 0.0
23/02:00am 12.1 9.0 11.6 97 0.3 SW 19 24 10 13 1017.8 1017.7 0.0
23/01:30am 13.1 10.3 12.5 96 0.3 SW 19 24 10 13 1017.9 1017.8 0.0
23/01:00am 13.4 9.9 12.3 93 0.6 SW 22 32 12 17 1017.8 1017.7 0.0
23/12:30am 13.7 10.4 12.9 95 0.4 SW 22 32 12 17 1017.8 1017.7 0.0
23/12:00am 13.9 11.4 13.6 98 0.2 SW 19 24 10 13 1017.6 1017.5 0.0
 
Date/Time
CDT
Temp
°C
App
Temp
°C
Dew
Point
°C
Rel
Hum
%
Delta-T
°C
Wind Press
QNH
hPa
Press
MSL
hPa
Rain since
9am
mm
Dir  Spd
km/h
Gust
km/h
Spd
kts
Gust
kts
22/11:36pm 14.1 11.6 13.6 97 0.3 SSW 19 24 10 13 1017.5 1017.4 0.0
22/11:30pm 14.3 12.3 14.0 98 0.2 SSW 17 22 9 12 1017.6 1017.5 0.0
22/11:26pm 14.5 12.6 14.2 98 0.2 SW 17 28 9 15 1017.7 1017.6 0.0
22/11:00pm 14.9 12.6 14.1 95 0.5 SW 19 24 10 13 1017.7 1017.6 0.0
22/10:30pm 15.1 13.2 14.1 94 0.6 SW 17 20 9 11 1017.6 1017.5 0.0
22/10:16pm 15.2 13.7 14.2 94 0.6 SSW 15 20 8 11 1017.6 1017.5 0.0
22/10:00pm 15.3 13.9 14.5 95 0.5 SW 15 20 8 11 1017.5 1017.4 0.0
22/09:52pm 15.5 14.5 14.5 94 0.6 SSW 13 19 7 10 1017.5 1017.4 0.0
22/09:51pm 15.5 14.5 14.5 94 0.6 SSW 13 19 7 10 1017.5 1017.4 0.0
22/09:30pm 15.4 14.0 14.4 94 0.6 SSW 15 20 8 11 1017.3 1017.2 0.0
22/09:00pm 15.5 13.7 14.4 93 0.6 S 17 24 9 13 1017.0 1016.9 0.0
22/08:43pm 15.7 13.4 14.2 91 0.9 SSW 19 28 10 15 1016.7 1016.6 0.0
22/08:30pm 15.8 13.4 14.3 91 0.9 SSW 20 28 11 15 1016.5 1016.4 0.0
22/08:00pm 16.3 12.7 14.1 87 1.3 SSW 26 35 14 19 1016.3 1016.2 0.0
22/07:30pm 16.5 13.5 13.6 83 1.6 SSW 22 33 12 18 1015.9 1015.8 0.0
22/07:00pm 17.1 13.2 13.4 79 2.1 SSW 26 39 14 21 1015.5 1015.4 0.0
22/06:30pm 17.4 14.2 13.1 76 2.4 S 22 35 12 19 1015.0 1014.9 0.0
22/06:00pm 18.1 14.5 13.2 73 2.8 S 24 39 13 21 1014.4 1014.3 0.0
22/05:30pm 19.7 15.7 12.9 65 3.8 S 26 35 14 19 1013.6 1013.5 0.0
22/05:00pm 20.8 16.6 12.5 59 4.7 S 26 35 14 19 1013.1 1013.0 0.0
22/04:30pm 22.9 19.1 12.5 52 5.9 S 24 32 13 17 1012.6 1012.5 0.0
22/04:00pm 24.0 19.8 12.3 48 6.7 S 26 35 14 19 1012.5 1012.4 0.0
22/03:30pm 24.2 19.6 12.2 47 6.9 S 28 41 15 22 1012.5 1012.4 0.0
22/03:00pm 25.2 20.2 12.1 44 7.5 S 30 43 16 23 1012.5 1012.4 0.0
22/02:30pm 23.8 19.6 12.4 48 6.5 SSW 26 33 14 18 1012.4 1012.3 0.0
22/02:00pm 26.7 23.5 12.0 40 8.5 SSW 20 30 11 16 1012.4 1012.3 0.0
22/01:30pm 25.6 21.9 8.1 33 9.4 WSW 17 28 9 15 1012.7 1012.6 0.0
22/01:00pm 25.5 21.6 9.3 36 8.9 SSW 20 33 11 18 1013.0 1012.9 0.0
22/12:30pm 24.5 20.1 7.2 33 9.1 WSW 20 28 11 15 1013.4 1013.3 0.0
22/12:00pm 23.6 20.4 9.9 42 7.5 WSW 17 26 9 14 1013.7 1013.6 0.0
22/11:30am 22.1 20.0 9.6 45 6.7 SW 11 15 6 8 1013.9 1013.8 0.0
22/11:00am 20.7 19.2 9.3 48 6.1 WSW 7 13 4 7 1014.2 1014.1 0.0
22/10:30am 20.0 19.1 11.2 57 4.8 S 7 11 4 6 1014.4 1014.3 0.0
22/10:00am 18.9 18.1 11.7 63 4.0 SSE 7 11 4 6 1014.8 1014.7 0.0
22/09:30am 17.2 15.9 11.2 68 3.2 SE 9 13 5 7 1014.9 1014.8 0.0
22/09:00am 16.0 14.5 12.0 77 2.2 SSW 11 17 6 9 1015.1 1015.0 0.0
22/08:50am 15.5 14.1 12.1 80 1.9 SW 11 17 6 9 1015.2 1015.1 0.0
22/08:30am 14.3 12.6 12.3 88 1.1 SW 13 17 7 9 1015.0 1014.9 0.0
22/08:00am 12.9 12.1 12.9 100 0.0 WSW 9 11 5 6 1015.0 1014.9 0.0
22/07:30am 12.1 11.4 12.1 100 0.0 WNW 7 9 4 5 1014.8 1014.7 0.0
22/07:00am 10.6 9.7 10.6 100 0.0 ESE 6 7 3 4 1014.9 1014.8 0.0
22/06:51am 9.5 8.3 9.5 100 0.0 ENE 6 7 3 4 1015.0 1014.9 0.0
22/06:30am 8.0 7.5 8.0 100 0.0 CALM 0 7 0 4 1014.9 1014.8 0.0
22/06:25am 7.8 7.3 7.8 100 0.0 CALM 0 0 0 0 1014.8 1014.7 0.0
22/06:00am 6.9 6.2 6.9 100 0.0 CALM 0 0 0 0 1014.8 1014.7 0.0
22/05:56am 7.2 6.6 7.2 100 0.0 CALM 0 0 0 0 1014.8 1014.7 0.0
22/05:47am 7.2 6.6 7.2 100 0.0 CALM 0 0 0 0 1014.8 1014.7 0.0
22/05:39am 7.8 6.9 7.8 100 0.0 ENE 2 6 1 3 1014.7 1014.6 0.0
22/05:30am 8.7 7.1 8.7 100 0.0 ENE 7 7 4 4 1014.8 1014.7 0.0
22/05:24am 8.9 7.5 8.9 100 0.0 ENE 6 7 3 4 1014.7 1014.6 0.0
22/05:19am 8.8 7.4 8.8 100 0.0 ENE 6 6 3 3 1014.8 1014.7 0.0
22/05:10am 8.6 7.0 8.6 100 0.0 ENE 7 9 4 5 1014.8 1014.7 0.0
22/05:00am 8.4 6.7 8.4 100 0.0 ENE 7 9 4 5 1014.8 1014.7 0.0
22/04:51am 8.8 7.4 8.8 100 0.0 ENE 6 7 3 4 1014.9 1014.8 0.0
22/04:50am 8.8 7.4 8.8 100 0.0 ENE 6 7 3 4 1014.8 1014.7 0.0
22/04:30am 9.9 9.5 9.9 100 0.0 E 2 6 1 3 1014.9 1014.8 0.0
22/04:00am 9.1 8.5 9.1 100 0.0 WSW 2 6 1 3 1015.0 1014.9 0.0
22/03:55am 8.8 7.8 8.8 100 0.0 WSW 4 7 2 4 1015.0 1014.9 0.0
22/03:30am 10.1 8.1 10.1 100 0.0 SW 11 13 6 7 1014.9 1014.8 0.0
22/03:00am 11.1 9.4 11.1 100 0.0 SW 11 15 6 8 1014.9 1014.8 0.0
22/02:30am 11.7 9.8 11.7 100 0.0 SW 13 17 7 9 1014.7 1014.6 0.0
22/02:00am 11.1 9.4 11.1 100 0.0 WSW 11 15 6 8 1014.8 1014.7 0.0
22/01:30am 11.5 9.9 11.5 100 0.0 SW 11 15 6 8 1015.0 1014.9 0.0
22/01:00am 11.1 10.3 11.1 100 0.0 SSW 6 9 3 5 1015.3 1015.2 0.0
22/12:30am 11.5 9.9 11.5 100 0.0 SW 11 13 6 7 1015.5 1015.4 0.0
22/12:00am 11.7 9.8 11.7 100 0.0 SW 13 17 7 9 1015.6 1015.5 0.0
 
Date/Time
CDT
Temp
°C
App
Temp
°C
Dew
Point
°C
Rel
Hum
%
Delta-T
°C
Wind Press
QNH
hPa
Press
MSL
hPa
Rain since
9am
mm
Dir  Spd
km/h
Gust
km/h
Spd
kts
Gust
kts
21/11:30pm 11.6 10.8 11.6 100 0.0 WSW 7 11 4 6 1016.0 1015.9 0.0

Latest Capital City Observations: Canberra | Sydney | Melbourne | Brisbane | Adelaide | Perth | Hobart | Darwin

Other formats

Comma delimited format used in spreadsheet applications
http://www.bom.gov.au/fwo/IDS60901/IDS60901.95818.axf

JavaScript Object Notation format (JSON) in row-major order
http://www.bom.gov.au/fwo/IDS60901/IDS60901.95818.json

Data quality

Most of these data are generated automatically and are frequently updated. Quality checks on data are not normally performed. It is possible for incorrect values to appear. Refer to information at About Latest Weather Observations and please check the disclaimer before using these data.